sensor_id;sensor_type;location;lat;lon;timestamp;P1;durP1;ratioP1;P2;durP2;ratioP2
16450;SDS011;12243;42.708;23.310;2023-12-04T00:00:36;7.80;;;5.67;;
16450;SDS011;12243;42.708;23.310;2023-12-04T00:03:04;9.03;;;6.10;;
16450;SDS011;12243;42.708;23.310;2023-12-04T00:05:31;6.93;;;5.20;;
16450;SDS011;12243;42.708;23.310;2023-12-04T00:07:58;5.57;;;4.73;;
16450;SDS011;12243;42.708;23.310;2023-12-04T00:10:26;9.77;;;5.67;;
16450;SDS011;12243;42.708;23.310;2023-12-04T00:12:53;7.40;;;5.60;;
16450;SDS011;12243;42.708;23.310;2023-12-04T00:15:20;6.70;;;5.30;;
16450;SDS011;12243;42.708;23.310;2023-12-04T00:17:47;8.30;;;6.23;;
16450;SDS011;12243;42.708;23.310;2023-12-04T00:20:14;4.77;;;3.23;;
16450;SDS011;12243;42.708;23.310;2023-12-04T00:22:41;4.40;;;3.90;;
16450;SDS011;12243;42.708;23.310;2023-12-04T00:25:08;7.53;;;5.30;;
16450;SDS011;12243;42.708;23.310;2023-12-04T00:27:37;9.33;;;6.30;;
16450;SDS011;12243;42.708;23.310;2023-12-04T00:30:04;10.17;;;6.13;;
16450;SDS011;12243;42.708;23.310;2023-12-04T00:32:32;7.47;;;5.87;;
16450;SDS011;12243;42.708;23.310;2023-12-04T00:34:59;7.80;;;5.67;;
16450;SDS011;12243;42.708;23.310;2023-12-04T00:37:26;7.80;;;5.67;;
16450;SDS011;12243;42.708;23.310;2023-12-04T00:39:53;6.43;;;5.40;;
16450;SDS011;12243;42.708;23.310;2023-12-04T00:42:19;11.73;;;7.40;;
16450;SDS011;12243;42.708;23.310;2023-12-04T00:44:48;7.53;;;5.77;;
16450;SDS011;12243;42.708;23.310;2023-12-04T00:47:15;10.27;;;5.70;;
16450;SDS011;12243;42.708;23.310;2023-12-04T00:49:42;7.53;;;5.67;;
16450;SDS011;12243;42.708;23.310;2023-12-04T00:52:08;9.00;;;6.07;;
16450;SDS011;12243;42.708;23.310;2023-12-04T00:54:38;9.10;;;5.97;;
16450;SDS011;12243;42.708;23.310;2023-12-04T00:57:05;10.37;;;6.97;;
16450;SDS011;12243;42.708;23.310;2023-12-04T00:59:32;7.97;;;5.77;;
16450;SDS011;12243;42.708;23.310;2023-12-04T01:02:00;5.73;;;4.87;;
16450;SDS011;12243;42.708;23.310;2023-12-04T01:04:27;10.03;;;6.43;;
16450;SDS011;12243;42.708;23.310;2023-12-04T01:06:54;9.97;;;6.93;;
16450;SDS011;12243;42.708;23.310;2023-12-04T01:09:21;9.60;;;6.80;;
16450;SDS011;12243;42.708;23.310;2023-12-04T01:11:49;9.20;;;6.77;;
16450;SDS011;12243;42.708;23.310;2023-12-04T01:14:17;10.27;;;6.90;;
16450;SDS011;12243;42.708;23.310;2023-12-04T01:16:44;8.73;;;5.73;;
16450;SDS011;12243;42.708;23.310;2023-12-04T01:19:12;9.20;;;6.30;;
16450;SDS011;12243;42.708;23.310;2023-12-04T01:21:39;9.40;;;6.73;;
16450;SDS011;12243;42.708;23.310;2023-12-04T01:24:06;9.63;;;6.27;;
16450;SDS011;12243;42.708;23.310;2023-12-04T01:26:32;8.97;;;6.07;;
16450;SDS011;12243;42.708;23.310;2023-12-04T01:28:59;10.57;;;6.73;;
16450;SDS011;12243;42.708;23.310;2023-12-04T01:31:26;7.40;;;5.87;;
16450;SDS011;12243;42.708;23.310;2023-12-04T01:33:53;9.30;;;6.73;;
16450;SDS011;12243;42.708;23.310;2023-12-04T01:36:21;7.23;;;5.37;;
16450;SDS011;12243;42.708;23.310;2023-12-04T01:38:48;9.87;;;6.90;;
16450;SDS011;12243;42.708;23.310;2023-12-04T01:41:15;10.33;;;6.40;;
16450;SDS011;12243;42.708;23.310;2023-12-04T01:43:42;7.87;;;5.50;;
16450;SDS011;12243;42.708;23.310;2023-12-04T01:46:09;7.63;;;5.90;;
16450;SDS011;12243;42.708;23.310;2023-12-04T01:48:36;7.37;;;5.40;;
16450;SDS011;12243;42.708;23.310;2023-12-04T01:51:05;11.83;;;5.50;;
16450;SDS011;12243;42.708;23.310;2023-12-04T01:53:37;7.03;;;5.90;;
16450;SDS011;12243;42.708;23.310;2023-12-04T01:56:06;8.83;;;6.63;;
16450;SDS011;12243;42.708;23.310;2023-12-04T01:58:34;9.27;;;6.13;;
16450;SDS011;12243;42.708;23.310;2023-12-04T02:01:01;8.53;;;6.03;;
16450;SDS011;12243;42.708;23.310;2023-12-04T02:03:28;9.17;;;6.17;;
16450;SDS011;12243;42.708;23.310;2023-12-04T02:05:55;5.60;;;4.57;;
16450;SDS011;12243;42.708;23.310;2023-12-04T02:08:25;6.83;;;5.43;;
16450;SDS011;12243;42.708;23.310;2023-12-04T02:10:54;5.80;;;4.67;;
16450;SDS011;12243;42.708;23.310;2023-12-04T02:13:21;8.70;;;5.60;;
16450;SDS011;12243;42.708;23.310;2023-12-04T02:15:49;5.27;;;4.57;;
16450;SDS011;12243;42.708;23.310;2023-12-04T02:18:18;7.83;;;6.07;;
16450;SDS011;12243;42.708;23.310;2023-12-04T02:20:45;8.43;;;5.60;;
16450;SDS011;12243;42.708;23.310;2023-12-04T02:23:12;8.70;;;7.07;;
16450;SDS011;12243;42.708;23.310;2023-12-04T02:25:41;5.73;;;5.10;;
16450;SDS011;12243;42.708;23.310;2023-12-04T02:28:08;6.83;;;4.70;;
16450;SDS011;12243;42.708;23.310;2023-12-04T02:30:39;4.43;;;3.87;;
16450;SDS011;12243;42.708;23.310;2023-12-04T02:33:09;6.57;;;4.33;;
16450;SDS011;12243;42.708;23.310;2023-12-04T02:35:39;9.17;;;5.47;;
16450;SDS011;12243;42.708;23.310;2023-12-04T02:38:08;4.13;;;3.53;;
16450;SDS011;12243;42.708;23.310;2023-12-04T02:40:36;7.50;;;5.17;;
16450;SDS011;12243;42.708;23.310;2023-12-04T02:43:04;6.37;;;5.47;;
16450;SDS011;12243;42.708;23.310;2023-12-04T02:45:31;6.13;;;3.93;;
16450;SDS011;12243;42.708;23.310;2023-12-04T02:47:58;6.40;;;5.40;;
16450;SDS011;12243;42.708;23.310;2023-12-04T02:50:25;3.87;;;3.37;;
16450;SDS011;12243;42.708;23.310;2023-12-04T02:52:52;4.50;;;4.10;;
16450;SDS011;12243;42.708;23.310;2023-12-04T02:55:19;3.90;;;3.57;;
16450;SDS011;12243;42.708;23.310;2023-12-04T02:57:45;6.00;;;4.80;;
16450;SDS011;12243;42.708;23.310;2023-12-04T03:00:14;5.53;;;4.43;;
16450;SDS011;12243;42.708;23.310;2023-12-04T03:02:41;4.97;;;4.27;;
16450;SDS011;12243;42.708;23.310;2023-12-04T03:05:08;7.63;;;6.07;;
16450;SDS011;12243;42.708;23.310;2023-12-04T03:07:35;10.17;;;4.63;;
16450;SDS011;12243;42.708;23.310;2023-12-04T03:10:02;7.93;;;4.90;;
16450;SDS011;12243;42.708;23.310;2023-12-04T03:12:30;6.93;;;5.47;;
16450;SDS011;12243;42.708;23.310;2023-12-04T03:14:57;5.40;;;4.60;;
16450;SDS011;12243;42.708;23.310;2023-12-04T03:17:25;7.73;;;4.80;;
16450;SDS011;12243;42.708;23.310;2023-12-04T03:19:52;7.10;;;5.50;;
16450;SDS011;12243;42.708;23.310;2023-12-04T03:22:19;7.67;;;5.17;;
16450;SDS011;12243;42.708;23.310;2023-12-04T03:24:46;7.27;;;4.87;;
16450;SDS011;12243;42.708;23.310;2023-12-04T03:27:16;5.87;;;4.67;;
16450;SDS011;12243;42.708;23.310;2023-12-04T03:29:42;5.27;;;4.67;;
16450;SDS011;12243;42.708;23.310;2023-12-04T03:32:09;6.97;;;4.80;;
16450;SDS011;12243;42.708;23.310;2023-12-04T03:34:38;7.30;;;4.90;;
16450;SDS011;12243;42.708;23.310;2023-12-04T03:37:06;4.73;;;4.23;;
16450;SDS011;12243;42.708;23.310;2023-12-04T03:39:32;8.30;;;5.67;;
16450;SDS011;12243;42.708;23.310;2023-12-04T03:41:59;6.00;;;4.20;;
16450;SDS011;12243;42.708;23.310;2023-12-04T03:44:26;5.53;;;4.63;;
16450;SDS011;12243;42.708;23.310;2023-12-04T03:46:53;8.93;;;5.63;;
16450;SDS011;12243;42.708;23.310;2023-12-04T03:49:20;6.97;;;4.90;;
16450;SDS011;12243;42.708;23.310;2023-12-04T03:51:48;6.53;;;4.83;;
16450;SDS011;12243;42.708;23.310;2023-12-04T03:54:16;7.67;;;4.73;;
16450;SDS011;12243;42.708;23.310;2023-12-04T03:56:43;8.63;;;5.40;;
16450;SDS011;12243;42.708;23.310;2023-12-04T03:59:10;4.10;;;3.67;;
16450;SDS011;12243;42.708;23.310;2023-12-04T04:01:37;6.67;;;5.07;;
16450;SDS011;12243;42.708;23.310;2023-12-04T04:04:03;7.90;;;5.40;;
16450;SDS011;12243;42.708;23.310;2023-12-04T04:06:30;7.40;;;4.73;;
16450;SDS011;12243;42.708;23.310;2023-12-04T04:08:59;6.60;;;5.57;;
16450;SDS011;12243;42.708;23.310;2023-12-04T04:11:26;3.70;;;3.27;;
16450;SDS011;12243;42.708;23.310;2023-12-04T04:13:52;5.70;;;4.53;;
16450;SDS011;12243;42.708;23.310;2023-12-04T04:16:19;9.10;;;5.63;;
16450;SDS011;12243;42.708;23.310;2023-12-04T04:18:46;5.33;;;4.87;;
16450;SDS011;12243;42.708;23.310;2023-12-04T04:21:13;6.17;;;5.23;;
16450;SDS011;12243;42.708;23.310;2023-12-04T04:23:40;8.80;;;5.50;;
16450;SDS011;12243;42.708;23.310;2023-12-04T04:26:08;5.83;;;4.63;;
16450;SDS011;12243;42.708;23.310;2023-12-04T04:28:35;5.40;;;4.90;;
16450;SDS011;12243;42.708;23.310;2023-12-04T04:31:02;5.00;;;4.20;;
16450;SDS011;12243;42.708;23.310;2023-12-04T04:33:30;5.33;;;4.57;;
16450;SDS011;12243;42.708;23.310;2023-12-04T04:35:57;8.70;;;5.20;;
16450;SDS011;12243;42.708;23.310;2023-12-04T04:38:24;6.77;;;4.87;;
16450;SDS011;12243;42.708;23.310;2023-12-04T04:40:50;8.23;;;5.43;;
16450;SDS011;12243;42.708;23.310;2023-12-04T04:43:19;6.03;;;4.40;;
16450;SDS011;12243;42.708;23.310;2023-12-04T04:45:46;6.03;;;5.00;;
16450;SDS011;12243;42.708;23.310;2023-12-04T04:48:14;9.30;;;5.80;;
16450;SDS011;12243;42.708;23.310;2023-12-04T04:50:41;8.20;;;6.00;;
16450;SDS011;12243;42.708;23.310;2023-12-04T04:53:07;6.07;;;4.63;;
16450;SDS011;12243;42.708;23.310;2023-12-04T04:55:34;16.07;;;8.07;;
16450;SDS011;12243;42.708;23.310;2023-12-04T04:58:01;9.17;;;6.20;;
16450;SDS011;12243;42.708;23.310;2023-12-04T05:00:30;11.37;;;6.87;;
16450;SDS011;12243;42.708;23.310;2023-12-04T05:02:56;8.07;;;5.77;;
16450;SDS011;12243;42.708;23.310;2023-12-04T05:05:23;8.93;;;6.50;;
16450;SDS011;12243;42.708;23.310;2023-12-04T05:07:50;9.37;;;6.13;;
16450;SDS011;12243;42.708;23.310;2023-12-04T05:10:17;6.70;;;4.93;;
16450;SDS011;12243;42.708;23.310;2023-12-04T05:12:44;6.97;;;4.27;;
16450;SDS011;12243;42.708;23.310;2023-12-04T05:15:11;9.80;;;6.17;;
16450;SDS011;12243;42.708;23.310;2023-12-04T05:17:39;8.63;;;5.90;;
16450;SDS011;12243;42.708;23.310;2023-12-04T05:20:07;7.60;;;5.50;;
16450;SDS011;12243;42.708;23.310;2023-12-04T05:22:35;6.53;;;5.20;;
16450;SDS011;12243;42.708;23.310;2023-12-04T05:25:02;8.50;;;6.30;;
16450;SDS011;12243;42.708;23.310;2023-12-04T05:27:29;7.97;;;5.30;;
16450;SDS011;12243;42.708;23.310;2023-12-04T05:29:56;4.47;;;4.03;;
16450;SDS011;12243;42.708;23.310;2023-12-04T05:32:23;15.53;;;8.50;;
16450;SDS011;12243;42.708;23.310;2023-12-04T05:34:51;14.00;;;8.43;;
16450;SDS011;12243;42.708;23.310;2023-12-04T05:37:18;8.77;;;5.53;;
16450;SDS011;12243;42.708;23.310;2023-12-04T05:39:45;7.60;;;4.50;;
16450;SDS011;12243;42.708;23.310;2023-12-04T05:42:12;11.10;;;6.70;;
16450;SDS011;12243;42.708;23.310;2023-12-04T05:44:39;7.30;;;5.20;;
16450;SDS011;12243;42.708;23.310;2023-12-04T05:47:06;11.10;;;5.93;;
16450;SDS011;12243;42.708;23.310;2023-12-04T05:49:33;6.53;;;5.47;;
16450;SDS011;12243;42.708;23.310;2023-12-04T05:52:02;7.97;;;5.70;;
16450;SDS011;12243;42.708;23.310;2023-12-04T05:54:29;8.70;;;5.60;;
16450;SDS011;12243;42.708;23.310;2023-12-04T05:56:56;7.23;;;5.80;;
16450;SDS011;12243;42.708;23.310;2023-12-04T05:59:24;8.73;;;5.47;;
16450;SDS011;12243;42.708;23.310;2023-12-04T06:01:51;6.73;;;4.73;;
16450;SDS011;12243;42.708;23.310;2023-12-04T06:04:18;10.80;;;6.77;;
16450;SDS011;12243;42.708;23.310;2023-12-04T06:06:45;7.63;;;5.20;;
16450;SDS011;12243;42.708;23.310;2023-12-04T06:09:13;5.10;;;4.23;;
16450;SDS011;12243;42.708;23.310;2023-12-04T06:11:42;6.07;;;5.33;;
16450;SDS011;12243;42.708;23.310;2023-12-04T06:14:08;8.50;;;6.00;;
16450;SDS011;12243;42.708;23.310;2023-12-04T06:16:36;8.53;;;6.03;;
16450;SDS011;12243;42.708;23.310;2023-12-04T06:19:03;7.50;;;5.90;;
16450;SDS011;12243;42.708;23.310;2023-12-04T06:21:30;7.90;;;6.50;;
16450;SDS011;12243;42.708;23.310;2023-12-04T06:23:57;12.63;;;5.60;;
16450;SDS011;12243;42.708;23.310;2023-12-04T06:26:26;8.30;;;5.63;;
16450;SDS011;12243;42.708;23.310;2023-12-04T06:28:53;6.63;;;5.30;;
16450;SDS011;12243;42.708;23.310;2023-12-04T06:31:21;6.57;;;5.43;;
16450;SDS011;12243;42.708;23.310;2023-12-04T06:33:48;7.17;;;5.53;;
16450;SDS011;12243;42.708;23.310;2023-12-04T06:36:16;8.50;;;5.93;;
16450;SDS011;12243;42.708;23.310;2023-12-04T06:38:44;7.10;;;5.47;;
16450;SDS011;12243;42.708;23.310;2023-12-04T06:41:13;6.40;;;4.80;;
16450;SDS011;12243;42.708;23.310;2023-12-04T06:43:42;7.93;;;5.67;;
16450;SDS011;12243;42.708;23.310;2023-12-04T06:46:10;9.37;;;5.90;;
16450;SDS011;12243;42.708;23.310;2023-12-04T06:48:40;8.03;;;5.73;;
16450;SDS011;12243;42.708;23.310;2023-12-04T06:51:09;6.73;;;5.43;;
16450;SDS011;12243;42.708;23.310;2023-12-04T06:53:36;10.33;;;5.70;;
16450;SDS011;12243;42.708;23.310;2023-12-04T06:56:03;7.87;;;5.63;;
16450;SDS011;12243;42.708;23.310;2023-12-04T06:58:31;8.87;;;6.43;;
16450;SDS011;12243;42.708;23.310;2023-12-04T07:00:59;4.50;;;4.10;;
16450;SDS011;12243;42.708;23.310;2023-12-04T07:03:26;8.97;;;6.40;;
16450;SDS011;12243;42.708;23.310;2023-12-04T07:05:53;7.93;;;5.60;;
16450;SDS011;12243;42.708;23.310;2023-12-04T07:08:21;6.30;;;4.30;;
16450;SDS011;12243;42.708;23.310;2023-12-04T07:10:47;8.77;;;5.43;;
16450;SDS011;12243;42.708;23.310;2023-12-04T07:13:14;8.23;;;5.37;;
16450;SDS011;12243;42.708;23.310;2023-12-04T07:15:41;5.73;;;4.93;;
16450;SDS011;12243;42.708;23.310;2023-12-04T07:18:09;7.17;;;4.97;;
16450;SDS011;12243;42.708;23.310;2023-12-04T07:20:36;6.93;;;4.93;;
16450;SDS011;12243;42.708;23.310;2023-12-04T07:23:03;8.47;;;5.60;;
16450;SDS011;12243;42.708;23.310;2023-12-04T07:25:30;8.27;;;5.73;;
16450;SDS011;12243;42.708;23.310;2023-12-04T07:27:57;6.50;;;5.20;;
16450;SDS011;12243;42.708;23.310;2023-12-04T07:30:24;8.03;;;5.50;;
16450;SDS011;12243;42.708;23.310;2023-12-04T07:32:52;7.40;;;4.83;;
16450;SDS011;12243;42.708;23.310;2023-12-04T07:35:20;7.93;;;6.47;;
16450;SDS011;12243;42.708;23.310;2023-12-04T07:37:48;7.83;;;5.43;;
16450;SDS011;12243;42.708;23.310;2023-12-04T07:40:15;8.20;;;5.60;;
16450;SDS011;12243;42.708;23.310;2023-12-04T07:42:42;6.47;;;4.60;;
16450;SDS011;12243;42.708;23.310;2023-12-04T07:45:10;5.83;;;4.13;;
16450;SDS011;12243;42.708;23.310;2023-12-04T07:47:37;8.03;;;5.50;;
16450;SDS011;12243;42.708;23.310;2023-12-04T07:50:05;6.90;;;4.57;;
16450;SDS011;12243;42.708;23.310;2023-12-04T07:52:34;7.40;;;4.80;;
16450;SDS011;12243;42.708;23.310;2023-12-04T07:55:01;7.57;;;4.77;;
16450;SDS011;12243;42.708;23.310;2023-12-04T07:57:28;7.80;;;5.80;;
16450;SDS011;12243;42.708;23.310;2023-12-04T07:59:56;6.30;;;5.07;;
16450;SDS011;12243;42.708;23.310;2023-12-04T08:02:22;10.57;;;6.07;;
16450;SDS011;12243;42.708;23.310;2023-12-04T08:04:48;10.63;;;5.87;;
16450;SDS011;12243;42.708;23.310;2023-12-04T08:07:15;9.93;;;5.37;;
16450;SDS011;12243;42.708;23.310;2023-12-04T08:09:44;8.37;;;6.30;;
16450;SDS011;12243;42.708;23.310;2023-12-04T08:12:11;6.50;;;5.10;;
16450;SDS011;12243;42.708;23.310;2023-12-04T08:14:38;5.70;;;4.40;;
16450;SDS011;12243;42.708;23.310;2023-12-04T08:17:05;7.10;;;4.70;;
16450;SDS011;12243;42.708;23.310;2023-12-04T08:19:32;4.97;;;4.43;;
16450;SDS011;12243;42.708;23.310;2023-12-04T08:21:59;7.30;;;4.70;;
16450;SDS011;12243;42.708;23.310;2023-12-04T08:24:26;5.20;;;4.70;;
16450;SDS011;12243;42.708;23.310;2023-12-04T08:26:54;8.07;;;5.60;;
16450;SDS011;12243;42.708;23.310;2023-12-04T08:29:23;13.60;;;7.63;;
16450;SDS011;12243;42.708;23.310;2023-12-04T08:31:49;6.63;;;4.83;;
16450;SDS011;12243;42.708;23.310;2023-12-04T08:34:16;5.20;;;4.43;;
16450;SDS011;12243;42.708;23.310;2023-12-04T08:36:43;7.03;;;5.30;;
16450;SDS011;12243;42.708;23.310;2023-12-04T08:39:10;7.10;;;5.27;;
16450;SDS011;12243;42.708;23.310;2023-12-04T08:41:37;7.13;;;5.20;;
16450;SDS011;12243;42.708;23.310;2023-12-04T08:44:06;6.50;;;5.07;;
16450;SDS011;12243;42.708;23.310;2023-12-04T08:46:32;5.90;;;4.80;;
16450;SDS011;12243;42.708;23.310;2023-12-04T08:48:59;5.60;;;4.67;;
16450;SDS011;12243;42.708;23.310;2023-12-04T08:51:26;4.80;;;4.40;;
16450;SDS011;12243;42.708;23.310;2023-12-04T08:53:55;5.30;;;4.43;;
16450;SDS011;12243;42.708;23.310;2023-12-04T08:56:22;4.83;;;4.27;;
16450;SDS011;12243;42.708;23.310;2023-12-04T08:58:49;6.63;;;4.93;;
16450;SDS011;12243;42.708;23.310;2023-12-04T09:01:18;4.87;;;4.20;;
16450;SDS011;12243;42.708;23.310;2023-12-04T09:03:45;5.73;;;4.30;;
16450;SDS011;12243;42.708;23.310;2023-12-04T09:06:12;4.77;;;4.37;;
16450;SDS011;12243;42.708;23.310;2023-12-04T09:08:39;5.33;;;4.83;;
16450;SDS011;12243;42.708;23.310;2023-12-04T09:11:06;5.17;;;4.17;;
16450;SDS011;12243;42.708;23.310;2023-12-04T09:13:33;4.70;;;4.10;;
16450;SDS011;12243;42.708;23.310;2023-12-04T09:16:01;9.17;;;4.20;;
16450;SDS011;12243;42.708;23.310;2023-12-04T09:18:29;5.50;;;3.83;;
16450;SDS011;12243;42.708;23.310;2023-12-04T09:20:56;4.00;;;3.70;;
16450;SDS011;12243;42.708;23.310;2023-12-04T09:23:23;3.87;;;3.50;;
16450;SDS011;12243;42.708;23.310;2023-12-04T09:25:50;4.87;;;3.83;;
16450;SDS011;12243;42.708;23.310;2023-12-04T09:28:17;5.73;;;3.90;;
16450;SDS011;12243;42.708;23.310;2023-12-04T09:30:44;6.63;;;5.33;;
16450;SDS011;12243;42.708;23.310;2023-12-04T09:33:11;6.77;;;4.57;;
16450;SDS011;12243;42.708;23.310;2023-12-04T09:35:39;5.70;;;4.17;;
16450;SDS011;12243;42.708;23.310;2023-12-04T09:38:07;6.07;;;5.57;;
16450;SDS011;12243;42.708;23.310;2023-12-04T09:40:34;4.80;;;4.10;;
16450;SDS011;12243;42.708;23.310;2023-12-04T09:43:01;4.80;;;4.40;;
16450;SDS011;12243;42.708;23.310;2023-12-04T09:45:29;5.53;;;4.97;;
16450;SDS011;12243;42.708;23.310;2023-12-04T09:47:59;7.30;;;5.53;;
16450;SDS011;12243;42.708;23.310;2023-12-04T09:50:26;5.57;;;4.37;;
16450;SDS011;12243;42.708;23.310;2023-12-04T09:52:55;7.57;;;4.93;;
16450;SDS011;12243;42.708;23.310;2023-12-04T09:55:27;6.07;;;5.27;;
16450;SDS011;12243;42.708;23.310;2023-12-04T09:57:54;6.73;;;5.43;;
16450;SDS011;12243;42.708;23.310;2023-12-04T10:00:24;7.03;;;6.07;;
16450;SDS011;12243;42.708;23.310;2023-12-04T10:02:51;5.13;;;4.63;;
16450;SDS011;12243;42.708;23.310;2023-12-04T10:05:19;6.53;;;4.20;;
16450;SDS011;12243;42.708;23.310;2023-12-04T10:07:47;3.60;;;3.30;;
16450;SDS011;12243;42.708;23.310;2023-12-04T10:10:16;4.57;;;4.17;;
16450;SDS011;12243;42.708;23.310;2023-12-04T10:12:43;5.33;;;4.80;;
16450;SDS011;12243;42.708;23.310;2023-12-04T10:15:10;6.23;;;4.60;;
16450;SDS011;12243;42.708;23.310;2023-12-04T10:17:39;5.93;;;4.80;;
16450;SDS011;12243;42.708;23.310;2023-12-04T10:20:09;4.90;;;4.33;;
16450;SDS011;12243;42.708;23.310;2023-12-04T10:22:51;8.47;;;5.33;;
16450;SDS011;12243;42.708;23.310;2023-12-04T10:25:22;5.70;;;4.83;;
16450;SDS011;12243;42.708;23.310;2023-12-04T10:27:51;5.10;;;4.40;;
16450;SDS011;12243;42.708;23.310;2023-12-04T10:30:26;5.27;;;4.10;;
16450;SDS011;12243;42.708;23.310;2023-12-04T10:32:54;6.23;;;3.87;;
16450;SDS011;12243;42.708;23.310;2023-12-04T10:35:25;5.37;;;4.33;;
16450;SDS011;12243;42.708;23.310;2023-12-04T10:37:55;7.80;;;5.57;;
16450;SDS011;12243;42.708;23.310;2023-12-04T10:40:24;5.70;;;4.67;;
16450;SDS011;12243;42.708;23.310;2023-12-04T10:42:57;8.43;;;5.40;;
16450;SDS011;12243;42.708;23.310;2023-12-04T10:45:37;7.87;;;4.70;;
16450;SDS011;12243;42.708;23.310;2023-12-04T10:48:04;7.70;;;6.90;;
16450;SDS011;12243;42.708;23.310;2023-12-04T10:50:32;5.43;;;4.93;;
16450;SDS011;12243;42.708;23.310;2023-12-04T10:53:01;7.17;;;5.70;;
16450;SDS011;12243;42.708;23.310;2023-12-04T10:55:30;7.63;;;5.77;;
16450;SDS011;12243;42.708;23.310;2023-12-04T10:57:59;5.70;;;4.77;;
16450;SDS011;12243;42.708;23.310;2023-12-04T11:00:29;7.70;;;5.43;;
16450;SDS011;12243;42.708;23.310;2023-12-04T11:03:00;7.97;;;5.80;;
16450;SDS011;12243;42.708;23.310;2023-12-04T11:05:31;7.60;;;5.47;;
16450;SDS011;12243;42.708;23.310;2023-12-04T11:08:03;6.77;;;5.53;;
16450;SDS011;12243;42.708;23.310;2023-12-04T11:10:35;5.63;;;4.80;;
16450;SDS011;12243;42.708;23.310;2023-12-04T11:13:08;6.60;;;5.33;;
16450;SDS011;12243;42.708;23.310;2023-12-04T11:15:39;9.23;;;5.50;;
16450;SDS011;12243;42.708;23.310;2023-12-04T11:18:09;5.77;;;5.00;;
16450;SDS011;12243;42.708;23.310;2023-12-04T11:20:41;7.30;;;5.93;;
16450;SDS011;12243;42.708;23.310;2023-12-04T11:23:14;9.60;;;6.60;;
16450;SDS011;12243;42.708;23.310;2023-12-04T11:25:44;5.30;;;4.80;;
16450;SDS011;12243;42.708;23.310;2023-12-04T11:28:12;9.77;;;6.30;;
16450;SDS011;12243;42.708;23.310;2023-12-04T11:30:40;7.50;;;5.80;;
16450;SDS011;12243;42.708;23.310;2023-12-04T11:33:08;11.00;;;8.50;;
16450;SDS011;12243;42.708;23.310;2023-12-04T11:35:36;7.93;;;5.47;;
16450;SDS011;12243;42.708;23.310;2023-12-04T11:38:05;12.20;;;5.47;;
16450;SDS011;12243;42.708;23.310;2023-12-04T11:40:34;10.03;;;6.10;;
16450;SDS011;12243;42.708;23.310;2023-12-04T11:43:06;9.43;;;6.03;;
16450;SDS011;12243;42.708;23.310;2023-12-04T11:45:48;6.40;;;5.40;;
16450;SDS011;12243;42.708;23.310;2023-12-04T11:48:15;9.90;;;5.37;;
16450;SDS011;12243;42.708;23.310;2023-12-04T11:50:42;6.90;;;5.50;;
16450;SDS011;12243;42.708;23.310;2023-12-04T11:53:10;11.93;;;5.30;;
16450;SDS011;12243;42.708;23.310;2023-12-04T11:55:39;5.90;;;5.30;;
16450;SDS011;12243;42.708;23.310;2023-12-04T11:58:10;7.23;;;5.87;;
16450;SDS011;12243;42.708;23.310;2023-12-04T12:00:38;8.40;;;5.60;;
16450;SDS011;12243;42.708;23.310;2023-12-04T12:03:05;8.30;;;6.47;;
16450;SDS011;12243;42.708;23.310;2023-12-04T12:05:35;7.40;;;5.80;;
16450;SDS011;12243;42.708;23.310;2023-12-04T12:08:02;10.07;;;6.20;;
16450;SDS011;12243;42.708;23.310;2023-12-04T12:10:29;10.37;;;6.43;;
16450;SDS011;12243;42.708;23.310;2023-12-04T12:12:56;9.47;;;7.00;;
16450;SDS011;12243;42.708;23.310;2023-12-04T12:15:25;8.67;;;6.77;;
16450;SDS011;12243;42.708;23.310;2023-12-04T12:17:52;9.57;;;6.57;;
16450;SDS011;12243;42.708;23.310;2023-12-04T12:20:19;11.83;;;6.33;;
16450;SDS011;12243;42.708;23.310;2023-12-04T12:22:48;6.93;;;6.20;;
16450;SDS011;12243;42.708;23.310;2023-12-04T12:25:15;8.17;;;6.40;;
16450;SDS011;12243;42.708;23.310;2023-12-04T12:27:44;9.13;;;6.47;;
16450;SDS011;12243;42.708;23.310;2023-12-04T12:30:11;10.20;;;7.03;;
16450;SDS011;12243;42.708;23.310;2023-12-04T12:32:43;16.03;;;9.20;;
16450;SDS011;12243;42.708;23.310;2023-12-04T12:35:10;12.53;;;6.87;;
16450;SDS011;12243;42.708;23.310;2023-12-04T12:37:38;9.03;;;7.03;;
16450;SDS011;12243;42.708;23.310;2023-12-04T12:40:06;10.63;;;7.83;;
16450;SDS011;12243;42.708;23.310;2023-12-04T12:42:35;9.93;;;7.53;;
16450;SDS011;12243;42.708;23.310;2023-12-04T12:45:07;17.53;;;11.03;;
16450;SDS011;12243;42.708;23.310;2023-12-04T12:47:36;11.40;;;7.57;;
16450;SDS011;12243;42.708;23.310;2023-12-04T12:50:05;25.00;;;14.67;;
16450;SDS011;12243;42.708;23.310;2023-12-04T12:52:37;36.27;;;21.13;;
16450;SDS011;12243;42.708;23.310;2023-12-04T12:55:06;28.83;;;17.47;;
16450;SDS011;12243;42.708;23.310;2023-12-04T12:57:34;19.70;;;11.13;;
16450;SDS011;12243;42.708;23.310;2023-12-04T13:00:01;11.97;;;8.13;;
16450;SDS011;12243;42.708;23.310;2023-12-04T13:02:33;12.90;;;8.93;;
16450;SDS011;12243;42.708;23.310;2023-12-04T13:05:02;11.73;;;8.37;;
16450;SDS011;12243;42.708;23.310;2023-12-04T13:07:31;12.70;;;8.63;;
16450;SDS011;12243;42.708;23.310;2023-12-04T13:09:58;12.20;;;8.90;;
16450;SDS011;12243;42.708;23.310;2023-12-04T13:12:30;11.60;;;8.37;;
16450;SDS011;12243;42.708;23.310;2023-12-04T13:14:57;13.93;;;8.27;;
16450;SDS011;12243;42.708;23.310;2023-12-04T13:17:24;13.50;;;8.07;;
16450;SDS011;12243;42.708;23.310;2023-12-04T13:19:51;14.83;;;9.67;;
16450;SDS011;12243;42.708;23.310;2023-12-04T13:22:18;15.23;;;10.10;;
16450;SDS011;12243;42.708;23.310;2023-12-04T13:24:46;11.57;;;8.20;;
16450;SDS011;12243;42.708;23.310;2023-12-04T13:27:13;13.40;;;8.40;;
16450;SDS011;12243;42.708;23.310;2023-12-04T13:29:40;10.77;;;8.50;;
16450;SDS011;12243;42.708;23.310;2023-12-04T13:32:07;18.00;;;9.60;;
16450;SDS011;12243;42.708;23.310;2023-12-04T13:34:34;21.57;;;16.07;;
16450;SDS011;12243;42.708;23.310;2023-12-04T13:37:01;14.27;;;9.03;;
16450;SDS011;12243;42.708;23.310;2023-12-04T13:39:33;11.53;;;8.17;;
16450;SDS011;12243;42.708;23.310;2023-12-04T13:42:14;16.13;;;9.53;;
16450;SDS011;12243;42.708;23.310;2023-12-04T13:44:59;12.53;;;8.97;;
16450;SDS011;12243;42.708;23.310;2023-12-04T13:47:28;13.67;;;7.87;;
16450;SDS011;12243;42.708;23.310;2023-12-04T13:49:56;11.77;;;8.37;;
16450;SDS011;12243;42.708;23.310;2023-12-04T13:52:23;14.87;;;8.30;;
16450;SDS011;12243;42.708;23.310;2023-12-04T13:54:53;14.13;;;9.33;;
16450;SDS011;12243;42.708;23.310;2023-12-04T13:57:23;11.80;;;8.20;;
16450;SDS011;12243;42.708;23.310;2023-12-04T13:59:53;15.03;;;8.63;;
16450;SDS011;12243;42.708;23.310;2023-12-04T14:02:22;14.10;;;8.97;;
16450;SDS011;12243;42.708;23.310;2023-12-04T14:04:49;18.37;;;10.17;;
16450;SDS011;12243;42.708;23.310;2023-12-04T14:07:17;16.13;;;9.53;;
16450;SDS011;12243;42.708;23.310;2023-12-04T14:09:44;12.87;;;9.63;;
16450;SDS011;12243;42.708;23.310;2023-12-04T14:12:12;10.90;;;8.17;;
16450;SDS011;12243;42.708;23.310;2023-12-04T14:14:42;11.83;;;8.03;;
16450;SDS011;12243;42.708;23.310;2023-12-04T14:17:09;12.63;;;8.50;;
16450;SDS011;12243;42.708;23.310;2023-12-04T14:19:37;11.47;;;8.50;;
16450;SDS011;12243;42.708;23.310;2023-12-04T14:22:04;12.83;;;8.00;;
16450;SDS011;12243;42.708;23.310;2023-12-04T14:24:31;12.47;;;8.00;;
16450;SDS011;12243;42.708;23.310;2023-12-04T14:27:00;13.00;;;9.97;;
16450;SDS011;12243;42.708;23.310;2023-12-04T14:29:28;11.50;;;7.20;;
16450;SDS011;12243;42.708;23.310;2023-12-04T14:31:56;11.60;;;7.17;;
16450;SDS011;12243;42.708;23.310;2023-12-04T14:34:23;17.50;;;8.13;;